Northampton, Massachusetts
Current Conditions -  °F | °C
As of 3:58 PM on Saturday 22 Nov 2014 (Local Time) from KCEF Reporting Station
Overcast Overcast  
Wind Chill: 34°   Ceiling: 6500
Heat Index: 40°   Visibility: 10mi
Dew Point: 10°   Wind: 10mph
Humidity: 29%   Direction: 190°S
Pressure: 30.16"   Gusts: NA
Location:  42.32°N, 72.63°W
Report Text: KCEF 222058Z AUTO 19009KT 10SM BKN065 OVC085 05/M12 A3016 RMK AO2 SLP222 T00471123 57021
Loading
Personal Weather Stations






























Interactive Weather Map New forecast layout! Learn more

10-Day Weather Forecast

Advertisements
Track Severe Weather on mobile